Terminal Aerodrome Forecast
Issued by NWS Bismarck, ND

Home | Current Version | Previous Version | Text Only | Print | Product List | Glossary On
Versions: 1 2 3 4 5 6 7 8 9 10 11 12 13 14 15 16 17 18 19 20
000
FTUS43 KBIS 281739
TAFBIS
TAF
KBIS 281739Z 2818/2918 25008KT P6SM FEW030 SCT070
     FM281900 32011KT P6SM VCTS BKN060CB
      TEMPO 2820/2823 VRB15G25KT 5SM -TSRA BKN050CB
     FM290000 33006KT P6SM BKN050
     FM290600 36008KT P6SM BKN010
     FM291500 36011KT P6SM SCT025=

USA.gov is the U.S. government's official web portal to all federal, state and local government web resources and services.